Capitol Logistics 588




PGUM
Guam International Airport
Guam, GU
PHNL
Daniel K Inouye International Airport
Honolulu, US

Activity Log

Date Flight Route Aircraft Duration
09/12/2019 CPX303 DEWSS A450 JIMOS A450 NGUEN A450 BRIUN NONNI BOOKE BOOKE8 B763 7h 46m

Route Details

Aircraft Information
Group: Trans-Pacific Ops
Types: B744,B763,MD11
Route Data
Demand: V
Distance: 3302nm
Duration: 7h 25m
Recm'd Route: DEWSS A450 BRIUN NONNI BOOKE BOOKE8
Origin Wx: PGUM 270554Z 08008KT 10SM SCT021 30/24 A2982 RMK AO2 SLP090 T03000244 10322 20289 56009
Dest. Wx: PHNL 270553Z 07005KT 10SM FEW033 FEW050 24/17 A3000 RMK AO2 SLP157 T02440167 10294 20244 51016
Notes:

Financial History
Total Freight: 53,844lbs
Average Load: 53,844lbs/flt
Fuel Used: 73,288lbs
Avg. Fuel Used: 73,288lbs/flt
Fuel Expense: $58,630
Avg. Fuel Expense: $58,630
Avg. Fuel Cost: $0.80/lbs
Total Gross Income: $96,381
Pilot Pay: $149
Total Expenses: $10,461
Total Revenue: $25,977
Average Revenue: $96,380.80